sensor_id;sensor_type;location;lat;lon;timestamp;pressure;altitude;pressure_sealevel;temperature;humidity
29215;BME280;16252;49.816;7.964;2023-12-04T00:01:35;100219.03;;;1.73;57.88
29215;BME280;16252;49.816;7.964;2023-12-04T00:04:01;100218.47;;;1.65;57.89
29215;BME280;16252;49.816;7.964;2023-12-04T00:06:26;100183.06;;;1.47;57.77
29215;BME280;16252;49.816;7.964;2023-12-04T00:08:51;100188.28;;;1.49;57.94
29215;BME280;16252;49.816;7.964;2023-12-04T00:11:17;100203.03;;;1.55;57.89
29215;BME280;16252;49.816;7.964;2023-12-04T00:13:42;100180.72;;;1.40;57.91
29215;BME280;16252;49.816;7.964;2023-12-04T00:16:08;100194.50;;;1.46;57.81
29215;BME280;16252;49.816;7.964;2023-12-04T00:18:34;100148.00;;;1.20;57.82
29215;BME280;16252;49.816;7.964;2023-12-04T00:20:59;100166.19;;;1.28;58.10
29215;BME280;16252;49.816;7.964;2023-12-04T00:23:24;100157.25;;;1.32;57.88
29215;BME280;16252;49.816;7.964;2023-12-04T00:25:49;100167.69;;;1.35;58.12
29215;BME280;16252;49.816;7.964;2023-12-04T00:28:15;100135.75;;;1.19;57.86
29215;BME280;16252;49.816;7.964;2023-12-04T00:30:40;100148.56;;;1.28;57.97
29215;BME280;16252;49.816;7.964;2023-12-04T00:33:06;100143.47;;;1.24;57.85
29215;BME280;16252;49.816;7.964;2023-12-04T00:35:31;100130.75;;;1.12;57.90
29215;BME280;16252;49.816;7.964;2023-12-04T00:37:56;100133.97;;;1.20;57.88
29215;BME280;16252;49.816;7.964;2023-12-04T00:40:22;100115.91;;;1.09;57.64
29215;BME280;16252;49.816;7.964;2023-12-04T00:42:47;100109.16;;;1.00;58.00
29215;BME280;16252;49.816;7.964;2023-12-04T00:45:12;100133.31;;;1.13;58.09
29215;BME280;16252;49.816;7.964;2023-12-04T00:47:37;100111.97;;;0.96;57.99
29215;BME280;16252;49.816;7.964;2023-12-04T00:50:03;100104.97;;;0.95;58.12
29215;BME280;16252;49.816;7.964;2023-12-04T00:52:29;100095.53;;;0.89;58.02
29215;BME280;16252;49.816;7.964;2023-12-04T00:54:54;100124.78;;;1.06;57.99
29215;BME280;16252;49.816;7.964;2023-12-04T00:57:19;100102.38;;;0.93;57.82
29215;BME280;16252;49.816;7.964;2023-12-04T00:59:45;100107.56;;;0.96;57.96
29215;BME280;16252;49.816;7.964;2023-12-04T01:02:10;100098.09;;;0.91;58.04
29215;BME280;16252;49.816;7.964;2023-12-04T01:04:35;100092.81;;;0.91;58.10
29215;BME280;16252;49.816;7.964;2023-12-04T01:07:01;100095.41;;;0.92;57.98
29215;BME280;16252;49.816;7.964;2023-12-04T01:09:26;100101.53;;;0.93;58.16
29215;BME280;16252;49.816;7.964;2023-12-04T01:11:55;100121.22;;;1.07;58.17
29215;BME280;16252;49.816;7.964;2023-12-04T01:14:20;100070.56;;;0.74;58.23
29215;BME280;16252;49.816;7.964;2023-12-04T01:16:46;100121.34;;;1.04;58.21
29215;BME280;16252;49.816;7.964;2023-12-04T01:19:11;100101.53;;;0.93;58.06
29215;BME280;16252;49.816;7.964;2023-12-04T01:21:37;100095.44;;;0.91;58.05
29215;BME280;16252;49.816;7.964;2023-12-04T01:24:02;100112.03;;;0.94;58.02
29215;BME280;16252;49.816;7.964;2023-12-04T01:26:27;100085.31;;;0.80;58.11
29215;BME280;16252;49.816;7.964;2023-12-04T01:28:53;100129.16;;;1.06;58.12
29215;BME280;16252;49.816;7.964;2023-12-04T01:31:18;100096.41;;;0.88;58.06
29215;BME280;16252;49.816;7.964;2023-12-04T01:33:43;100086.97;;;0.82;57.95
29215;BME280;16252;49.816;7.964;2023-12-04T01:36:09;100105.78;;;0.97;57.96
29215;BME280;16252;49.816;7.964;2023-12-04T01:38:34;100076.47;;;0.81;58.29
29215;BME280;16252;49.816;7.964;2023-12-04T01:40:59;100093.66;;;0.91;57.99
29215;BME280;16252;49.816;7.964;2023-12-04T01:43:25;100101.41;;;0.96;57.88
29215;BME280;16252;49.816;7.964;2023-12-04T01:45:51;100108.28;;;1.01;58.15
29215;BME280;16252;49.816;7.964;2023-12-04T01:48:17;100084.03;;;0.92;58.19
29215;BME280;16252;49.816;7.964;2023-12-04T01:50:42;100093.50;;;0.96;57.94
29215;BME280;16252;49.816;7.964;2023-12-04T01:53:09;100098.50;;;1.03;58.11
29215;BME280;16252;49.816;7.964;2023-12-04T01:55:34;100070.41;;;0.79;58.16
29215;BME280;16252;49.816;7.964;2023-12-04T01:58:02;100104.81;;;0.99;58.24
29215;BME280;16252;49.816;7.964;2023-12-04T02:00:29;100073.78;;;0.82;57.90
29215;BME280;16252;49.816;7.964;2023-12-04T02:02:54;100061.72;;;0.77;57.86
29215;BME280;16252;49.816;7.964;2023-12-04T02:05:21;100089.34;;;0.90;58.30
29215;BME280;16252;49.816;7.964;2023-12-04T02:07:47;100077.97;;;0.88;58.25
29215;BME280;16252;49.816;7.964;2023-12-04T02:10:13;100039.94;;;0.72;57.90
29215;BME280;16252;49.816;7.964;2023-12-04T02:12:38;100037.47;;;0.67;57.89
29215;BME280;16252;49.816;7.964;2023-12-04T02:15:04;100041.66;;;0.73;58.13
29215;BME280;16252;49.816;7.964;2023-12-04T02:17:30;100046.63;;;0.80;58.12
29215;BME280;16252;49.816;7.964;2023-12-04T02:19:57;100049.44;;;0.76;58.03
29215;BME280;16252;49.816;7.964;2023-12-04T02:22:22;100043.28;;;0.77;58.02
29215;BME280;16252;49.816;7.964;2023-12-04T02:24:47;100058.03;;;0.81;58.01
29215;BME280;16252;49.816;7.964;2023-12-04T02:27:23;100071.69;;;0.92;58.08
29215;BME280;16252;49.816;7.964;2023-12-04T02:29:58;100064.59;;;0.94;58.29
29215;BME280;16252;49.816;7.964;2023-12-04T02:32:24;100062.97;;;0.90;58.14
29215;BME280;16252;49.816;7.964;2023-12-04T02:34:53;100021.63;;;0.69;58.12
29215;BME280;16252;49.816;7.964;2023-12-04T02:37:20;100000.13;;;0.56;58.24
29215;BME280;16252;49.816;7.964;2023-12-04T02:39:46;100024.03;;;0.75;58.37
29215;BME280;16252;49.816;7.964;2023-12-04T02:42:13;100035.03;;;0.86;58.19
29215;BME280;16252;49.816;7.964;2023-12-04T02:44:39;99984.38;;;0.54;58.35
29215;BME280;16252;49.816;7.964;2023-12-04T02:47:04;100003.19;;;0.69;58.42
29215;BME280;16252;49.816;7.964;2023-12-04T02:49:29;100006.50;;;0.74;58.43
29215;BME280;16252;49.816;7.964;2023-12-04T02:51:55;99977.06;;;0.62;58.15
29215;BME280;16252;49.816;7.964;2023-12-04T02:54:20;99959.72;;;0.57;58.17
29215;BME280;16252;49.816;7.964;2023-12-04T02:56:45;99995.09;;;0.73;58.20
29215;BME280;16252;49.816;7.964;2023-12-04T02:59:10;99983.66;;;0.74;58.16
29215;BME280;16252;49.816;7.964;2023-12-04T03:01:36;100004.47;;;0.82;58.17
29215;BME280;16252;49.816;7.964;2023-12-04T03:04:01;99973.41;;;0.67;58.28
29215;BME280;16252;49.816;7.964;2023-12-04T03:06:26;99965.56;;;0.65;58.07
29215;BME280;16252;49.816;7.964;2023-12-04T03:08:51;99979.09;;;0.79;58.28
29215;BME280;16252;49.816;7.964;2023-12-04T03:11:17;99978.41;;;0.74;57.93
29215;BME280;16252;49.816;7.964;2023-12-04T03:13:42;99980.22;;;0.72;58.25
29215;BME280;16252;49.816;7.964;2023-12-04T03:16:15;99964.19;;;0.78;58.46
29215;BME280;16252;49.816;7.964;2023-12-04T03:18:40;99932.25;;;0.64;58.23
29215;BME280;16252;49.816;7.964;2023-12-04T03:21:06;99959.00;;;0.77;58.23
29215;BME280;16252;49.816;7.964;2023-12-04T03:23:31;99929.13;;;0.53;58.19
29215;BME280;16252;49.816;7.964;2023-12-04T03:25:57;99953.25;;;0.65;58.24
29215;BME280;16252;49.816;7.964;2023-12-04T03:28:22;99976.44;;;0.79;58.22
29215;BME280;16252;49.816;7.964;2023-12-04T03:30:47;99951.25;;;0.72;58.29
29215;BME280;16252;49.816;7.964;2023-12-04T03:33:12;99951.38;;;0.69;58.11
29215;BME280;16252;49.816;7.964;2023-12-04T03:35:38;99931.66;;;0.56;58.11
29215;BME280;16252;49.816;7.964;2023-12-04T03:38:03;99944.47;;;0.65;58.20
29215;BME280;16252;49.816;7.964;2023-12-04T03:40:28;99928.91;;;0.59;58.19
29215;BME280;16252;49.816;7.964;2023-12-04T03:42:53;99965.16;;;0.76;58.27
29215;BME280;16252;49.816;7.964;2023-12-04T03:45:19;99934.41;;;0.53;58.29
29215;BME280;16252;49.816;7.964;2023-12-04T03:47:44;99938.06;;;0.49;58.14
29215;BME280;16252;49.816;7.964;2023-12-04T03:50:09;99932.16;;;0.42;58.20
29215;BME280;16252;49.816;7.964;2023-12-04T03:52:34;99979.53;;;0.67;58.53
29215;BME280;16252;49.816;7.964;2023-12-04T03:55:00;99956.22;;;0.56;58.15
29215;BME280;16252;49.816;7.964;2023-12-04T03:57:25;99952.66;;;0.57;58.30
29215;BME280;16252;49.816;7.964;2023-12-04T03:59:50;99956.16;;;0.58;58.36
29215;BME280;16252;49.816;7.964;2023-12-04T04:02:15;99966.31;;;0.69;58.33
29215;BME280;16252;49.816;7.964;2023-12-04T04:04:41;99965.34;;;0.71;58.38
29215;BME280;16252;49.816;7.964;2023-12-04T04:07:07;99949.88;;;0.62;58.26
29215;BME280;16252;49.816;7.964;2023-12-04T04:09:33;99969.56;;;0.75;58.26
29215;BME280;16252;49.816;7.964;2023-12-04T04:11:58;99973.88;;;0.78;58.55
29215;BME280;16252;49.816;7.964;2023-12-04T04:14:23;99955.50;;;0.76;58.33
29215;BME280;16252;49.816;7.964;2023-12-04T04:16:49;99939.91;;;0.70;58.31
29215;BME280;16252;49.816;7.964;2023-12-04T04:19:15;99931.97;;;0.72;58.42
29215;BME280;16252;49.816;7.964;2023-12-04T04:21:40;99916.44;;;0.64;58.36
29215;BME280;16252;49.816;7.964;2023-12-04T04:24:06;99933.63;;;0.74;58.36
29215;BME280;16252;49.816;7.964;2023-12-04T04:26:32;99919.81;;;0.68;58.28
29215;BME280;16252;49.816;7.964;2023-12-04T04:28:58;99925.94;;;0.68;58.37
29215;BME280;16252;49.816;7.964;2023-12-04T04:31:23;99921.59;;;0.67;58.38
29215;BME280;16252;49.816;7.964;2023-12-04T04:33:48;99934.75;;;0.67;58.37
29215;BME280;16252;49.816;7.964;2023-12-04T04:36:14;99939.09;;;0.68;58.18
29215;BME280;16252;49.816;7.964;2023-12-04T04:38:39;99935.69;;;0.66;58.28
29215;BME280;16252;49.816;7.964;2023-12-04T04:41:05;99947.53;;;0.78;58.17
29215;BME280;16252;49.816;7.964;2023-12-04T04:43:30;99912.28;;;0.58;58.07
29215;BME280;16252;49.816;7.964;2023-12-04T04:45:55;99918.59;;;0.53;58.36
29215;BME280;16252;49.816;7.964;2023-12-04T04:48:23;99884.78;;;0.42;58.38
29215;BME280;16252;49.816;7.964;2023-12-04T04:50:50;99861.59;;;0.28;58.27
29215;BME280;16252;49.816;7.964;2023-12-04T04:53:15;99932.09;;;0.69;58.27
29215;BME280;16252;49.816;7.964;2023-12-04T04:55:40;99912.34;;;0.55;58.28
29215;BME280;16252;49.816;7.964;2023-12-04T04:58:06;99916.66;;;0.58;58.54
29215;BME280;16252;49.816;7.964;2023-12-04T05:00:31;99900.41;;;0.47;58.17
29215;BME280;16252;49.816;7.964;2023-12-04T05:02:56;99899.31;;;0.52;58.32
29215;BME280;16252;49.816;7.964;2023-12-04T05:05:21;99906.03;;;0.61;58.30
29215;BME280;16252;49.816;7.964;2023-12-04T05:07:47;99882.03;;;0.45;58.43
29215;BME280;16252;49.816;7.964;2023-12-04T05:10:12;99896.56;;;0.55;58.36
29215;BME280;16252;49.816;7.964;2023-12-04T05:12:37;99891.41;;;0.52;58.46
29215;BME280;16252;49.816;7.964;2023-12-04T05:15:03;99912.75;;;0.68;58.45
29215;BME280;16252;49.816;7.964;2023-12-04T05:17:28;99903.44;;;0.59;58.39
29215;BME280;16252;49.816;7.964;2023-12-04T05:19:53;99889.72;;;0.51;58.61
29215;BME280;16252;49.816;7.964;2023-12-04T05:22:19;99898.13;;;0.61;58.39
29215;BME280;16252;49.816;7.964;2023-12-04T05:24:44;99849.00;;;0.36;58.65
29215;BME280;16252;49.816;7.964;2023-12-04T05:27:09;99861.88;;;0.44;58.40
29215;BME280;16252;49.816;7.964;2023-12-04T05:29:34;99886.00;;;0.57;58.50
29215;BME280;16252;49.816;7.964;2023-12-04T05:32:00;99876.44;;;0.54;58.50
29215;BME280;16252;49.816;7.964;2023-12-04T05:34:25;99881.81;;;0.51;58.51
29215;BME280;16252;49.816;7.964;2023-12-04T05:36:50;99903.28;;;0.64;58.53
29215;BME280;16252;49.816;7.964;2023-12-04T05:39:15;99862.91;;;0.40;58.55
29215;BME280;16252;49.816;7.964;2023-12-04T05:41:41;99892.19;;;0.56;58.59
29215;BME280;16252;49.816;7.964;2023-12-04T05:44:06;99858.41;;;0.43;58.59
29215;BME280;16252;49.816;7.964;2023-12-04T05:46:31;99853.06;;;0.45;58.57
29215;BME280;16252;49.816;7.964;2023-12-04T05:48:57;99861.47;;;0.55;58.50
29215;BME280;16252;49.816;7.964;2023-12-04T05:51:22;99852.09;;;0.48;58.59
29215;BME280;16252;49.816;7.964;2023-12-04T05:53:48;99859.41;;;0.63;58.62
29215;BME280;16252;49.816;7.964;2023-12-04T05:56:14;99849.41;;;0.49;58.51
29215;BME280;16252;49.816;7.964;2023-12-04T05:58:40;99845.13;;;0.47;58.50
29215;BME280;16252;49.816;7.964;2023-12-04T06:01:05;99870.88;;;0.62;58.56
29215;BME280;16252;49.816;7.964;2023-12-04T06:03:31;99869.03;;;0.64;58.64
29215;BME280;16252;49.816;7.964;2023-12-04T06:05:57;99840.75;;;0.46;58.67
29215;BME280;16252;49.816;7.964;2023-12-04T06:08:22;99873.50;;;0.62;58.57
29215;BME280;16252;49.816;7.964;2023-12-04T06:10:47;99873.47;;;0.63;58.52
29215;BME280;16252;49.816;7.964;2023-12-04T06:13:13;99845.56;;;0.58;58.59
29215;BME280;16252;49.816;7.964;2023-12-04T06:15:38;99855.88;;;0.64;58.63
29215;BME280;16252;49.816;7.964;2023-12-04T06:18:03;99836.69;;;0.60;58.54
29215;BME280;16252;49.816;7.964;2023-12-04T06:20:29;99821.78;;;0.61;58.60
29215;BME280;16252;49.816;7.964;2023-12-04T06:22:55;99837.16;;;0.72;58.58
29215;BME280;16252;49.816;7.964;2023-12-04T06:25:20;99819.19;;;0.59;58.68
29215;BME280;16252;49.816;7.964;2023-12-04T06:27:46;99826.06;;;0.63;58.79
29215;BME280;16252;49.816;7.964;2023-12-04T06:30:12;99812.69;;;0.68;58.74
29215;BME280;16252;49.816;7.964;2023-12-04T06:32:38;99807.44;;;0.68;58.75
29215;BME280;16252;49.816;7.964;2023-12-04T06:35:03;99810.94;;;0.69;58.69
29215;BME280;16252;49.816;7.964;2023-12-04T06:37:29;99811.72;;;0.71;58.64
29215;BME280;16252;49.816;7.964;2023-12-04T06:39:59;99822.53;;;0.86;58.72
29215;BME280;16252;49.816;7.964;2023-12-04T06:42:24;99815.97;;;0.97;58.45
29215;BME280;16252;49.816;7.964;2023-12-04T06:44:50;99782.03;;;0.67;58.42
29215;BME280;16252;49.816;7.964;2023-12-04T06:47:17;99805.81;;;0.88;58.54
29215;BME280;16252;49.816;7.964;2023-12-04T06:49:43;99773.09;;;0.71;58.52
29215;BME280;16252;49.816;7.964;2023-12-04T06:52:08;99769.66;;;0.69;58.65
29215;BME280;16252;49.816;7.964;2023-12-04T06:54:34;99782.72;;;0.72;58.69
29215;BME280;16252;49.816;7.964;2023-12-04T06:56:59;99750.75;;;0.59;58.62
29215;BME280;16252;49.816;7.964;2023-12-04T06:59:24;99762.44;;;0.74;58.58
29215;BME280;16252;49.816;7.964;2023-12-04T07:01:49;99768.44;;;0.78;58.71
29215;BME280;16252;49.816;7.964;2023-12-04T07:04:15;99759.06;;;0.71;58.46
29215;BME280;16252;49.816;7.964;2023-12-04T07:06:45;99754.00;;;0.66;58.53
29215;BME280;16252;49.816;7.964;2023-12-04T07:09:11;99773.78;;;0.76;58.60
29215;BME280;16252;49.816;7.964;2023-12-04T07:11:36;99774.81;;;0.72;58.51
29215;BME280;16252;49.816;7.964;2023-12-04T07:14:01;99778.91;;;0.79;58.59
29215;BME280;16252;49.816;7.964;2023-12-04T07:16:27;99729.13;;;0.51;58.58
29215;BME280;16252;49.816;7.964;2023-12-04T07:18:52;99734.09;;;0.59;58.66
29215;BME280;16252;49.816;7.964;2023-12-04T07:21:17;99747.94;;;0.64;58.72
29215;BME280;16252;49.816;7.964;2023-12-04T07:23:42;99738.41;;;0.60;58.61
29215;BME280;16252;49.816;7.964;2023-12-04T07:26:08;99755.41;;;0.75;58.80
29215;BME280;16252;49.816;7.964;2023-12-04T07:28:34;99775.13;;;0.86;58.78
29215;BME280;16252;49.816;7.964;2023-12-04T07:31:00;99778.47;;;0.90;58.81
29215;BME280;16252;49.816;7.964;2023-12-04T07:33:26;99781.06;;;0.92;58.85
29215;BME280;16252;49.816;7.964;2023-12-04T07:35:52;99768.06;;;0.87;58.84
29215;BME280;16252;49.816;7.964;2023-12-04T07:38:17;99771.50;;;0.89;58.79
29215;BME280;16252;49.816;7.964;2023-12-04T07:40:44;99767.91;;;0.92;58.64
29215;BME280;16252;49.816;7.964;2023-12-04T07:43:10;99758.53;;;0.84;58.51
29215;BME280;16252;49.816;7.964;2023-12-04T07:45:35;99675.22;;;0.38;58.59
29215;BME280;16252;49.816;7.964;2023-12-04T07:48:02;99718.16;;;0.62;58.57
29215;BME280;16252;49.816;7.964;2023-12-04T07:50:28;99727.22;;;0.77;58.63
29215;BME280;16252;49.816;7.964;2023-12-04T07:52:53;99668.00;;;0.43;58.51
29215;BME280;16252;49.816;7.964;2023-12-04T07:55:19;99753.75;;;0.94;58.60
29215;BME280;16252;49.816;7.964;2023-12-04T07:57:44;99709.91;;;0.71;58.50
29215;BME280;16252;49.816;7.964;2023-12-04T08:00:10;99744.84;;;0.97;58.73
29215;BME280;16252;49.816;7.964;2023-12-04T08:02:37;99740.50;;;0.96;58.46
29215;BME280;16252;49.816;7.964;2023-12-04T08:05:02;99739.44;;;1.00;58.55
29215;BME280;16252;49.816;7.964;2023-12-04T08:07:28;99736.03;;;0.98;58.55
29215;BME280;16252;49.816;7.964;2023-12-04T08:09:53;99720.47;;;0.92;58.56
29215;BME280;16252;49.816;7.964;2023-12-04T08:12:18;99719.34;;;0.97;58.59
29215;BME280;16252;49.816;7.964;2023-12-04T08:14:44;99724.50;;;1.00;58.39
29215;BME280;16252;49.816;7.964;2023-12-04T08:17:09;99708.16;;;0.92;58.53
29215;BME280;16252;49.816;7.964;2023-12-04T08:19:34;99736.44;;;1.09;58.63
29215;BME280;16252;49.816;7.964;2023-12-04T08:22:00;99695.97;;;0.90;58.50
29215;BME280;16252;49.816;7.964;2023-12-04T08:24:25;99729.25;;;1.13;58.54
29215;BME280;16252;49.816;7.964;2023-12-04T08:26:50;99708.56;;;1.03;58.60
29215;BME280;16252;49.816;7.964;2023-12-04T08:29:16;99711.84;;;1.08;58.63
29215;BME280;16252;49.816;7.964;2023-12-04T08:31:41;99710.00;;;1.11;58.76
29215;BME280;16252;49.816;7.964;2023-12-04T08:34:07;99692.75;;;1.03;58.67
29215;BME280;16252;49.816;7.964;2023-12-04T08:36:32;99709.50;;;1.23;58.69
29215;BME280;16252;49.816;7.964;2023-12-04T08:38:57;99665.41;;;1.06;58.58
29215;BME280;16252;49.816;7.964;2023-12-04T08:41:23;99703.91;;;1.30;58.64
29215;BME280;16252;49.816;7.964;2023-12-04T08:43:48;99637.69;;;0.97;58.69
29215;BME280;16252;49.816;7.964;2023-12-04T08:46:14;99695.66;;;1.38;58.49
29215;BME280;16252;49.816;7.964;2023-12-04T08:48:42;99693.97;;;1.37;58.56
29215;BME280;16252;49.816;7.964;2023-12-04T08:51:08;99687.16;;;1.32;58.59
29215;BME280;16252;49.816;7.964;2023-12-04T08:53:34;99702.44;;;1.44;58.59
29215;BME280;16252;49.816;7.964;2023-12-04T08:55:59;99695.72;;;1.37;58.55
29215;BME280;16252;49.816;7.964;2023-12-04T08:58:24;99718.81;;;1.52;58.52
29215;BME280;16252;49.816;7.964;2023-12-04T09:00:50;99679.19;;;1.33;58.36
29215;BME280;16252;49.816;7.964;2023-12-04T09:03:15;99678.00;;;1.40;58.26
29215;BME280;16252;49.816;7.964;2023-12-04T09:05:40;99695.94;;;1.52;58.28
29215;BME280;16252;49.816;7.964;2023-12-04T09:08:05;99713.09;;;1.61;58.37
29215;BME280;16252;49.816;7.964;2023-12-04T09:10:32;99715.75;;;1.61;58.33
29215;BME280;16252;49.816;7.964;2023-12-04T09:12:57;99696.72;;;1.55;58.29
29215;BME280;16252;49.816;7.964;2023-12-04T09:15:22;99689.81;;;1.52;58.39
29215;BME280;16252;49.816;7.964;2023-12-04T09:17:47;99701.56;;;1.64;58.66
29215;BME280;16252;49.816;7.964;2023-12-04T09:20:13;99653.63;;;1.35;58.43
29215;BME280;16252;49.816;7.964;2023-12-04T09:22:38;99705.19;;;1.61;58.41
29215;BME280;16252;49.816;7.964;2023-12-04T09:25:06;99705.06;;;1.64;58.17
29215;BME280;16252;49.816;7.964;2023-12-04T09:27:31;99681.81;;;1.54;58.20
29215;BME280;16252;49.816;7.964;2023-12-04T09:29:56;99656.41;;;1.32;58.25
29215;BME280;16252;49.816;7.964;2023-12-04T09:32:22;99685.09;;;1.59;58.12
29215;BME280;16252;49.816;7.964;2023-12-04T09:34:47;99643.72;;;1.40;58.22
29215;BME280;16252;49.816;7.964;2023-12-04T09:37:13;99688.78;;;1.75;58.30
29215;BME280;16252;49.816;7.964;2023-12-04T09:39:39;99667.38;;;1.62;58.24
29215;BME280;16252;49.816;7.964;2023-12-04T09:42:05;99693.81;;;1.80;58.11
29215;BME280;16252;49.816;7.964;2023-12-04T09:44:32;99680.63;;;1.80;58.25
29215;BME280;16252;49.816;7.964;2023-12-04T09:46:58;99695.19;;;1.88;58.22
29215;BME280;16252;49.816;7.964;2023-12-04T09:49:26;99675.16;;;1.84;58.11
29215;BME280;16252;49.816;7.964;2023-12-04T09:51:53;99675.44;;;1.78;58.24
29215;BME280;16252;49.816;7.964;2023-12-04T09:54:18;99686.28;;;1.91;58.08
29215;BME280;16252;49.816;7.964;2023-12-04T09:56:44;99685.22;;;1.95;58.26
29215;BME280;16252;49.816;7.964;2023-12-04T09:59:13;99691.66;;;2.08;58.09
29215;BME280;16252;49.816;7.964;2023-12-04T10:01:39;99676.97;;;2.03;58.19
29215;BME280;16252;49.816;7.964;2023-12-04T10:04:05;99635.66;;;1.83;58.11
29215;BME280;16252;49.816;7.964;2023-12-04T10:06:31;99666.31;;;2.04;58.01
29215;BME280;16252;49.816;7.964;2023-12-04T10:08:57;99676.31;;;2.16;57.96
29215;BME280;16252;49.816;7.964;2023-12-04T10:11:26;99673.59;;;2.18;58.05
29215;BME280;16252;49.816;7.964;2023-12-04T10:13:52;99669.97;;;2.21;57.90
29215;BME280;16252;49.816;7.964;2023-12-04T10:16:37;99607.19;;;1.89;57.73
29215;BME280;16252;49.816;7.964;2023-12-04T10:19:23;99630.00;;;2.09;57.76
29215;BME280;16252;49.816;7.964;2023-12-04T10:21:51;99635.22;;;2.11;57.98
29215;BME280;16252;49.816;7.964;2023-12-04T10:24:37;99652.75;;;2.31;58.15
29215;BME280;16252;49.816;7.964;2023-12-04T10:27:08;99621.94;;;2.12;58.35
29215;BME280;16252;49.816;7.964;2023-12-04T10:29:47;99629.91;;;2.30;58.51
29215;BME280;16252;49.816;7.964;2023-12-04T10:32:13;99617.22;;;2.19;58.54
29215;BME280;16252;49.816;7.964;2023-12-04T10:34:41;99594.91;;;2.07;58.92
29215;BME280;16252;49.816;7.964;2023-12-04T10:37:07;99573.53;;;1.94;58.83
29215;BME280;16252;49.816;7.964;2023-12-04T10:39:46;99593.06;;;2.09;59.24
29215;BME280;16252;49.816;7.964;2023-12-04T10:42:12;99546.72;;;1.85;59.21
29215;BME280;16252;49.816;7.964;2023-12-04T10:44:40;99609.16;;;2.22;59.40
29215;BME280;16252;49.816;7.964;2023-12-04T10:47:05;99578.31;;;2.05;59.42
29215;BME280;16252;49.816;7.964;2023-12-04T10:49:32;99594.53;;;2.15;59.59
29215;BME280;16252;49.816;7.964;2023-12-04T10:51:59;99582.59;;;2.08;59.54
29215;BME280;16252;49.816;7.964;2023-12-04T10:54:25;99588.63;;;2.10;59.84
29215;BME280;16252;49.816;7.964;2023-12-04T10:56:52;99581.66;;;2.09;59.85
29215;BME280;16252;49.816;7.964;2023-12-04T10:59:21;99471.38;;;1.43;60.21
29215;BME280;16252;49.816;7.964;2023-12-04T11:01:51;99576.31;;;2.10;60.21
29215;BME280;16252;49.816;7.964;2023-12-04T11:04:19;99572.72;;;2.11;60.47
29215;BME280;16252;49.816;7.964;2023-12-04T11:06:49;99555.41;;;2.06;60.86
29215;BME280;16252;49.816;7.964;2023-12-04T11:09:17;99538.09;;;2.00;60.51
29215;BME280;16252;49.816;7.964;2023-12-04T11:11:46;99525.91;;;1.98;60.86
29215;BME280;16252;49.816;7.964;2023-12-04T11:14:14;99548.44;;;2.22;61.00
29215;BME280;16252;49.816;7.964;2023-12-04T11:16:48;99543.78;;;2.27;61.06
29215;BME280;16252;49.816;7.964;2023-12-04T11:19:35;99540.00;;;2.33;61.07
29215;BME280;16252;49.816;7.964;2023-12-04T11:22:04;99508.44;;;2.12;60.55
29215;BME280;16252;49.816;7.964;2023-12-04T11:24:32;99513.34;;;2.20;60.76
29215;BME280;16252;49.816;7.964;2023-12-04T11:26:57;99463.59;;;1.95;60.60
29215;BME280;16252;49.816;7.964;2023-12-04T11:29:24;99487.44;;;2.11;60.89
29215;BME280;16252;49.816;7.964;2023-12-04T11:31:50;99489.13;;;2.12;60.63
29215;BME280;16252;49.816;7.964;2023-12-04T11:34:15;99479.59;;;2.09;60.64
29215;BME280;16252;49.816;7.964;2023-12-04T11:36:41;99481.94;;;2.15;60.95
29215;BME280;16252;49.816;7.964;2023-12-04T11:39:09;99498.69;;;2.32;61.23
29215;BME280;16252;49.816;7.964;2023-12-04T11:41:37;99459.41;;;2.08;60.99
29215;BME280;16252;49.816;7.964;2023-12-04T11:44:03;99498.69;;;2.32;61.10
29215;BME280;16252;49.816;7.964;2023-12-04T11:46:36;99472.00;;;2.21;60.94
29215;BME280;16252;49.816;7.964;2023-12-04T11:49:30;99488.59;;;2.40;61.55
29215;BME280;16252;49.816;7.964;2023-12-04T11:51:59;99461.13;;;2.27;61.15
29215;BME280;16252;49.816;7.964;2023-12-04T11:54:27;99483.53;;;2.35;61.19
29215;BME280;16252;49.816;7.964;2023-12-04T11:59:39;99443.88;;;2.20;61.24
29215;BME280;16252;49.816;7.964;2023-12-04T12:02:09;99461.75;;;2.32;61.18
29215;BME280;16252;49.816;7.964;2023-12-04T12:04:34;99476.78;;;2.47;60.92
29215;BME280;16252;49.816;7.964;2023-12-04T12:07:00;99400.81;;;2.02;60.56
29215;BME280;16252;49.816;7.964;2023-12-04T12:09:32;99394.63;;;2.03;61.00
29215;BME280;16252;49.816;7.964;2023-12-04T12:12:01;99434.88;;;2.24;61.03
29215;BME280;16252;49.816;7.964;2023-12-04T12:14:28;99446.69;;;2.34;60.93
29215;BME280;16252;49.816;7.964;2023-12-04T12:17:00;99429.44;;;2.27;61.23
29215;BME280;16252;49.816;7.964;2023-12-04T12:19:26;99438.03;;;2.30;60.83
29215;BME280;16252;49.816;7.964;2023-12-04T12:21:51;99421.59;;;2.25;61.00
29215;BME280;16252;49.816;7.964;2023-12-04T12:24:17;99360.78;;;1.93;61.06
29215;BME280;16252;49.816;7.964;2023-12-04T12:26:43;99399.09;;;2.18;61.20
29215;BME280;16252;49.816;7.964;2023-12-04T12:29:09;99388.00;;;2.11;61.10
29215;BME280;16252;49.816;7.964;2023-12-04T12:31:34;99355.34;;;1.97;61.12
29215;BME280;16252;49.816;7.964;2023-12-04T12:33:59;99380.00;;;2.13;61.16
29215;BME280;16252;49.816;7.964;2023-12-04T12:36:25;99368.84;;;2.08;61.08
29215;BME280;16252;49.816;7.964;2023-12-04T12:38:50;99367.97;;;2.07;61.12
29215;BME280;16252;49.816;7.964;2023-12-04T12:41:16;99358.53;;;2.03;61.39
29215;BME280;16252;49.816;7.964;2023-12-04T12:43:42;99349.13;;;1.98;61.41
29215;BME280;16252;49.816;7.964;2023-12-04T12:46:08;99352.06;;;2.09;61.44
29215;BME280;16252;49.816;7.964;2023-12-04T12:48:34;99319.81;;;1.86;61.38
29215;BME280;16252;49.816;7.964;2023-12-04T12:51:02;99359.03;;;2.10;61.87
29215;BME280;16252;49.816;7.964;2023-12-04T12:53:27;99319.81;;;1.86;61.61
29215;BME280;16252;49.816;7.964;2023-12-04T12:55:52;99369.81;;;2.23;61.64
29215;BME280;16252;49.816;7.964;2023-12-04T12:58:18;99369.75;;;2.24;61.71
29215;BME280;16252;49.816;7.964;2023-12-04T13:00:46;99365.47;;;2.22;61.81
29215;BME280;16252;49.816;7.964;2023-12-04T13:03:16;99343.75;;;2.16;61.99
29215;BME280;16252;49.816;7.964;2023-12-04T13:05:41;99359.78;;;2.29;61.64